Airfield :
LOGIN :

Register | Disclaimer

   EN    FR    IT 

 










Legend :    VFR   Marginal VFR   IFR   Intensive IFR   Very Intensive IFR
Visi :
Ceiling :
>= 8 km
>= 3000ft
5 to 8 km
1000 to 3000 ft
1500m to 5 km
500 to 1000 ft
800 to 1500m
200 to 500 ft
< 800m
< 200 ft
Symbols :   Thunderstorms  Fog  Heavy snow  Heavy precipitations  Wind > 20 kt
SIGMETs :     Misc.  Thunderstorms  Icing  Turbulence  Mountain Waves  Volcanic Ashes






- Airport Elevation : 659 ft
- IATA code : LYN


LFLY - Lyon Bron

CURRENT METAR :
  • 210430Z AUTO 11003KT CAVOK 09/06 Q1015 TEMPO FEW045TCU BKN050

EXPIRED METARs :
  • 210400Z AUTO 09004KT CAVOK 10/06 Q1015 TEMPO FEW045TCU BKN050
  • 210330Z AUTO VRB03KT CAVOK 10/07 Q1015 TEMPO FEW045TCU BKN050
  • 210300Z AUTO 10007KT 050V220 7000 -RA FEW038 BKN058 BKN068 10/07 Q1015 TEMPO FEW045TCU BKN050
  • 210230Z AUTO 06003KT 9999 -RA NSC 11/06 Q1015 TEMPO FEW045TCU BKN050
  • 210200Z AUTO 10003KT CAVOK 11/06 Q1015 TEMPO FEW045TCU BKN050

TAF TAF LFLY
Valid from the 21 at 00:00 until the 22 at 00:00 UTC


202300Z 2100/2124 18007KT CAVOK
PROB30
TEMPO 2102/2107 -RA FEW045TCU BKN050
BECMG 2110/2112 FEW050TCU BKN055
TEMPO 2115/2122 VRB12KT 3000 SHRA BKN040TCU
PROB40
TEMPO 2115/2120 FEW035CB
BECMG 2122/2124 NSC
ATIS : +33 4 72 15 87 96



MET'MAP, your aeronautical weather chart ! - Copyright ORBIFLY December 2007 - Disclaimer

ORBIFLY MET'MAP TEAM :

Programming & Development : Alexandra Zaïnal
Concept & original design : Baudouin d'Aumeries
Assistance for programming : Marc-Olivier Méhu
Technical & hardware support : Manuel Goepfert

Contact : metmap@orbifly.com




SOURCES & CREDITS :

   NOAA